MAPA DE AEROPUERTO

INFORMACIÓN METAR y TAF

METAR FOR OBBI
ADDS - METARS form results

(1241 UTC 18 February 2020)
Data provider http://aviationweather.gov/metar/data/
 
METAR text: OBBI 181230Z 09005KT CAVOK 23/16 Q1016 NOSIG
Conditions at: OBBI (BAHRAIN INTL ARP, BH) observed 1230 UTC 18 February 2020
Temperature: 23.0°C (73°F)
Dewpoint: 16.0°C (61°F) [RH = 65%]
Pressure (altimeter): 30.00 inches Hg (1016.0 mb)
Winds: from the E (90 degrees) at 6 MPH (5 knots; 2.6 m/s)
Visibility: 6 or more miles (10+ km)
Ceiling: ceiling and visibility are OK
Clouds: unknown
Weather: no significant weather observed at this time

METAR text: OBBI 181200Z 09006KT CAVOK 23/16 Q1016 NOSIG
Conditions at: OBBI (BAHRAIN INTL ARP, BH) observed 1200 UTC 18 February 2020
Temperature: 23.0°C (73°F)
Dewpoint: 16.0°C (61°F) [RH = 65%]
Pressure (altimeter): 30.00 inches Hg (1016.0 mb)
Winds: from the E (90 degrees) at 7 MPH (6 knots; 3.1 m/s)
Visibility: 6 or more miles (10+ km)
Ceiling: ceiling and visibility are OK
Clouds: unknown
Weather: no significant weather observed at this time

Forecast for: OBBI (BAHRAIN INTL ARP, BH)
Text: TAF OBBI 181100Z 1812/1918 09008KT CAVOK
Forecast period: 1200 UTC 18 February 2020 to 1800 UTC 19 February 2020
Forecast type: FROM: standard forecast or significant change
Winds: from the E (90 degrees) at 9 MPH (8 knots; 4.1 m/s)
Visibility: 6 or more miles 10+ km)
Ceiling: unknown
Clouds: missing
Weather: NSW  (no significant weather)
Text: PROB30
Forecast period: 0000 to 0600 UTC 19 February 2020
Forecast type: TEMPORARY: The following changes expected for less than half the time period
Visibility: 3 miles (5 km)
Ceiling: unknown
Clouds: missing
Weather: HZ  (haze)